ADDS METAR Data INFO
IDs: Format: Raw Decoded Include TAF

Data at: 1957 UTC 15 Dec 2017

KHDC 151935Z AUTO 02007KT 10SM -RA SCT046 SCT060 OVC100 08/02 A3021 RMK AO2
KHDC 151915Z AUTO 01007KT 10SM -RA OVC100 08/01 A3020 RMK AO2
KHDC 151855Z AUTO 02006KT 10SM -RA SCT034 SCT047 OVC100 08/00 A3020 RMK AO2
KHDC 151835Z AUTO 01009KT 10SM -RA SCT036 SCT047 BKN075 08/00 A3022 RMK AO2
KHDC 151815Z AUTO 02005KT 10SM SCT049 SCT075 BKN090 08/00 A3022 RMK AO2
KHDC 151755Z AUTO 01005KT 10SM -RA SCT050 BKN090 OVC110 08/00 A3024 RMK AO2
KHDC 151735Z AUTO 01008KT 10SM BKN110 08/00 A3026 RMK AO2
KHDC 151715Z AUTO 01005KT 10SM SCT090 OVC110 08/00 A3026 RMK AO2
KHDC 151655Z AUTO 01007KT 10SM BKN110 07/00 A3027 RMK AO2
KHDC 151635Z AUTO 02007KT 10SM OVC100 07/01 A3026 RMK AO2
KHDC 151615Z AUTO 02007KT 10SM OVC090 07/02 A3028 RMK AO2
KHDC 151555Z AUTO 01007KT 10SM -RA OVC100 07/01 A3027 RMK AO2
KHDC 151535Z AUTO 02005KT 10SM OVC090 07/01 A3024 RMK AO2
KHDC 151515Z AUTO 01004KT 10SM OVC100 07/01 A3025 RMK AO2
KHDC 151455Z AUTO 02007KT 10SM OVC100 07/01 A3022 RMK AO2
KHDC 151435Z AUTO 01006KT 10SM OVC110 07/01 A3021 RMK AO2
KHDC 151415Z AUTO 01007KT 10SM OVC110 07/01 A3019 RMK AO2
KHDC 151355Z AUTO 01007KT 10SM BKN110 07/02 A3018 RMK AO2
KHDC 151335Z AUTO 01008KT 10SM SCT120 07/02 A3018 RMK AO2
KHDC 151315Z AUTO 01007KT 10SM SCT120 07/02 A3016 RMK AO2
KHDC 151255Z AUTO 01005KT 10SM CLR 07/02 A3015 RMK AO2
KHDC 151235Z AUTO 02005KT 10SM CLR 07/02 A3014 RMK AO2
KHDC 151215Z AUTO 01006KT 10SM CLR 07/02 A3012 RMK AO2
KHDC 151155Z AUTO 02005KT 10SM CLR 07/02 A3012 RMK AO2
KHDC 151135Z AUTO 01007KT 10SM CLR 07/03 A3010 RMK AO2
KHDC 151115Z AUTO 02006KT 10SM CLR 08/03 A3010 RMK AO2
KHDC 151055Z AUTO 01006KT 10SM CLR 07/03 A3010 RMK AO2
KHDC 151035Z AUTO 01006KT 10SM CLR 08/03 A3008 RMK AO2
KHDC 151015Z AUTO 01005KT 10SM CLR 08/04 A3008 RMK AO2
KHDC 150955Z AUTO 01006KT 10SM CLR 08/05 A3008 RMK AO2
KHDC 150935Z AUTO 01006KT 10SM CLR 08/05 A3008 RMK AO2
KHDC 150915Z AUTO 01006KT 10SM CLR 08/05 A3007 RMK AO2
KHDC 150855Z AUTO 01005KT 10SM CLR 08/06 A3007 RMK AO2
KHDC 150835Z AUTO 00000KT 10SM CLR 08/06 A3007 RMK AO2
KHDC 150815Z AUTO 02005KT 10SM CLR 08/06 A3008 RMK AO2
KHDC 150755Z AUTO 02004KT 10SM CLR 08/07 A3007 RMK AO2
KHDC 150735Z AUTO 02004KT 10SM CLR 08/07 A3006 RMK AO2
KHDC 150715Z AUTO 02004KT 10SM CLR 08/07 A3007 RMK AO2
KHDC 150655Z AUTO 00000KT 10SM CLR 08/07 A3006 RMK AO2
KHDC 150635Z AUTO 02003KT 10SM CLR 08/07 A3007 RMK AO2
KHDC 150615Z AUTO 00000KT 10SM CLR 07/07 A3006 RMK AO2
KHDC 150555Z AUTO 00000KT 10SM CLR 08/07 A3006 RMK AO2
KHDC 150535Z AUTO 00000KT 10SM CLR 07/07 A3005 RMK AO2
KHDC 150515Z AUTO 02003KT 7SM CLR 07/07 A3005 RMK AO2
KHDC 150455Z AUTO 00000KT 10SM CLR 07/07 A3005 RMK AO2
KHDC 150435Z AUTO 02003KT 7SM CLR 07/06 A3004 RMK AO2
KHDC 150415Z AUTO 00000KT 10SM SCT060 07/07 A3004 RMK AO2
KHDC 150355Z AUTO 00000KT 10SM CLR 08/07 A3004 RMK AO2
KHDC 150335Z AUTO 00000KT 10SM CLR 07/07 A3004 RMK AO2
KHDC 150315Z AUTO 00000KT 10SM CLR 08/07 A3003 RMK AO2
KHDC 150255Z AUTO 00000KT 10SM CLR 08/07 A3003 RMK AO2
KHDC 150240Z AUTO 00000KT 10SM CLR 08/07 A3002 RMK AO2
KHDC 150215Z AUTO 00000KT 10SM CLR 08/08 A3002 RMK AO2
KHDC 150155Z AUTO 00000KT 10SM CLR 09/08 A3002 RMK AO2
KHDC 150135Z AUTO 00000KT 10SM CLR 09/07 A3001 RMK AO2
KHDC 150115Z AUTO 00000KT 10SM CLR 10/08 A3001 RMK AO2
KHDC 150055Z AUTO 00000KT 10SM CLR 10/08 A3002 RMK AO2
KHDC 150035Z AUTO 00000KT 10SM CLR 10/08 A3001 RMK AO2
KHDC 150015Z AUTO 00000KT 10SM CLR 10/08 A3001 RMK AO2
KHDC 142355Z AUTO 00000KT 10SM CLR 11/08 A3001 RMK AO2
KHDC 142335Z AUTO 00000KT 10SM CLR 11/08 A2999 RMK AO2
KHDC 142315Z AUTO 00000KT 10SM CLR 12/08 A2998 RMK AO2
KHDC 142255Z AUTO 00000KT 10SM CLR 13/07 A2997 RMK AO2
KHDC 142235Z AUTO 18003KT 10SM CLR 13/08 A2998 RMK AO2
KHDC 142215Z AUTO 17003KT 10SM CLR 14/07 A2998 RMK AO2
KHDC 142155Z AUTO 18004KT 10SM CLR 15/07 A2997 RMK AO2
KHDC 142135Z AUTO 18004KT 10SM CLR 16/07 A2997 RMK AO2
KHDC 142115Z AUTO 00000KT 10SM CLR 16/05 A2997 RMK AO2
KHDC 142055Z AUTO 00000KT 10SM CLR 16/05 A2997 RMK AO2
KHDC 142035Z AUTO 00000KT 10SM CLR 16/04 A2997 RMK AO2
KHDC 142015Z AUTO 00000KT 10SM CLR 16/04 A2998 RMK AO2
KHDC 141955Z AUTO 18003KT 10SM CLR 16/05 A2997 RMK AO2
KHDC 141935Z AUTO 17003KT 10SM CLR 17/04 A2997 RMK AO2
KHDC 141915Z AUTO 00000KT 10SM CLR 16/04 A2998 RMK AO2
KHDC 141855Z AUTO 00000KT 10SM CLR 16/03 A2998 RMK AO2
KHDC 141835Z AUTO 00000KT 10SM CLR 16/04 A2998 RMK AO2
KHDC 141815Z AUTO 02003KT 10SM CLR 16/03 A2998 RMK AO2
KHDC 141755Z AUTO 11004KT 10SM CLR 16/04 A3000 RMK AO2
KHDC 141735Z AUTO 00000KT 10SM CLR 16/03 A3001 RMK AO2
KHDC 141715Z AUTO 01004KT 10SM CLR 16/05 A3002 RMK AO2
KHDC 141655Z AUTO 00000KT 10SM CLR 15/06 A3002 RMK AO2
KHDC 141635Z AUTO 00000KT 10SM CLR 13/07 A3004 RMK AO2
KHDC 141615Z AUTO 00000KT 10SM CLR 12/08 A3004 RMK AO2
KHDC 141555Z AUTO 00000KT 10SM CLR 11/07 A3004 RMK AO2
KHDC 141535Z AUTO 00000KT 10SM CLR 10/08 A3004 RMK AO2
KHDC 141515Z AUTO 00000KT 10SM CLR 08/07 A3003 RMK AO2
KHDC 141455Z AUTO 00000KT 10SM CLR 07/06 A3003 RMK AO2
KHDC 141435Z AUTO 00000KT 10SM CLR 06/05 A3002 RMK AO2
KHDC 141415Z AUTO 00000KT 10SM CLR 04/03 A3002 RMK AO2
KHDC 141355Z AUTO 00000KT 7SM CLR 02/02 A3001 RMK AO2
KHDC 141335Z AUTO 00000KT 7SM CLR 02/01 A3001 RMK AO2
KHDC 141315Z AUTO 00000KT 10SM CLR 01/01 A3000 RMK AO2
KHDC 141255Z AUTO 00000KT 10SM CLR 02/02 A2999 RMK AO2
KHDC 141235Z AUTO 00000KT 10SM CLR 02/02 A2999 RMK AO2
KHDC 141215Z AUTO 00000KT 10SM CLR 02/02 A3000 RMK AO2
KHDC 141155Z AUTO 00000KT 10SM CLR 01/01 A3000 RMK AO2
KHDC 141135Z AUTO 00000KT 10SM CLR 01/01 A2999 RMK AO2
KHDC 141115Z AUTO 00000KT 10SM CLR 02/02 A2998 RMK AO2
KHDC 141055Z AUTO 00000KT 10SM CLR 03/02 A2997 RMK AO2
KHDC 141035Z AUTO 00000KT 10SM CLR 03/02 A2997 RMK AO2
KHDC 141015Z AUTO 00000KT 10SM CLR 03/02 A2996 RMK AO2
KHDC 140955Z AUTO 00000KT 10SM CLR 03/02 A2997 RMK AO2
KHDC 140935Z AUTO 00000KT 10SM CLR 03/02 A2998 RMK AO2
KHDC 140915Z AUTO 00000KT 10SM CLR 03/03 A2998 RMK AO2
KHDC 140855Z AUTO 00000KT 10SM CLR 03/02 A2998 RMK AO2
KHDC 140835Z AUTO 00000KT 10SM CLR 03/02 A2998 RMK AO2
KHDC 140815Z AUTO 00000KT 10SM CLR 03/03 A2997 RMK AO2